Terminal Aerodrome Forecast
Issued by NWS Sioux Falls, SD

Home | Current Version | Previous Version | Graphics & Text | Print | Product List | Glossary Off
Versions: 1 2 3 4 5 6 7 8 9 10 11 12 13

530
FTUS43 KFSD 131120
TAFHON
TAF
KHON 131120Z 1312/1412 14006KT 4SM -SN SCT025 BKN050
     FM131400 15012KT P6SM BKN025
     FM131600 15012KT P6SM OVC060
     FM131800 17013KT P6SM SCT100
     FM140000 18006KT P6SM SKC=

USA.gov is the U.S. government's official web portal to all federal, state and local government web resources and services.